createdAt,value
2018-11-05T00:01:21.168Z,9.17
2018-11-05T00:03:49.492Z,9.17
2018-11-05T00:06:17.799Z,9.14
2018-11-05T00:08:46.223Z,9.17
2018-11-05T00:11:14.611Z,9.14
2018-11-05T00:13:42.939Z,9.15
2018-11-05T00:16:11.387Z,9.12
2018-11-05T00:18:39.683Z,9.15
2018-11-05T00:21:08.018Z,9.15
2018-11-05T00:23:36.329Z,9.16
2018-11-05T00:26:04.688Z,9.15
2018-11-05T00:28:32.983Z,9.17
2018-11-05T00:31:01.363Z,9.15
2018-11-05T00:33:29.653Z,9.17
2018-11-05T00:35:58.036Z,9.18
2018-11-05T00:38:26.345Z,9.16
2018-11-05T00:40:54.675Z,9.19
2018-11-05T00:43:23.016Z,9.18
2018-11-05T00:45:51.507Z,9.14
2018-11-05T00:48:19.683Z,9.15
2018-11-05T00:50:48.020Z,9.20
2018-11-05T00:53:16.442Z,9.13
2018-11-05T00:55:45.219Z,9.15
2018-11-05T00:58:13.633Z,9.17
2018-11-05T01:00:41.929Z,9.12
2018-11-05T01:03:10.237Z,9.18
2018-11-05T01:05:38.564Z,9.18
2018-11-05T01:08:06.963Z,9.20
2018-11-05T01:10:35.284Z,9.23
2018-11-05T01:13:03.562Z,9.21
2018-11-05T01:15:31.987Z,9.20
2018-11-05T01:18:00.376Z,9.23
2018-11-05T01:20:28.702Z,9.25
2018-11-05T01:22:57.004Z,9.25
2018-11-05T01:25:25.378Z,9.23
2018-11-05T01:27:53.726Z,9.34
2018-11-05T01:30:22.037Z,9.28
2018-11-05T01:32:50.326Z,9.30
2018-11-05T01:35:18.788Z,9.25
2018-11-05T01:37:47.160Z,9.26
2018-11-05T01:40:16.022Z,9.28
2018-11-05T01:42:44.589Z,9.24
2018-11-05T01:45:13.918Z,9.29
2018-11-05T01:47:42.976Z,9.28
2018-11-05T01:50:13.222Z,9.33
2018-11-05T01:52:42.081Z,9.30
2018-11-05T01:55:10.786Z,9.32
2018-11-05T01:57:39.758Z,9.24
2018-11-05T02:00:10.273Z,9.25
2018-11-05T02:02:38.722Z,9.33
2018-11-05T02:05:08.078Z,9.30
2018-11-05T02:07:36.355Z,9.31
2018-11-05T02:10:07.349Z,9.33
2018-11-05T02:12:35.690Z,9.30
2018-11-05T02:15:04.088Z,9.27
2018-11-05T02:17:32.408Z,9.29
2018-11-05T02:20:00.698Z,9.43
2018-11-05T02:22:29.380Z,9.34
2018-11-05T02:24:57.770Z,9.33
2018-11-05T02:27:26.316Z,9.31
2018-11-05T02:29:54.622Z,9.39
2018-11-05T02:32:22.969Z,9.47
2018-11-05T02:34:51.246Z,9.39
2018-11-05T02:37:19.559Z,9.35
2018-11-05T02:39:47.879Z,9.34
2018-11-05T02:42:16.234Z,9.37
2018-11-05T02:44:44.774Z,9.35
2018-11-05T02:47:13.105Z,9.39
2018-11-05T02:49:41.476Z,9.32
2018-11-05T02:52:09.807Z,9.39
2018-11-05T02:54:38.095Z,9.34
2018-11-05T02:57:06.551Z,9.32
2018-11-05T02:59:34.846Z,9.30
2018-11-05T03:02:03.150Z,9.40
2018-11-05T03:04:31.465Z,9.33
2018-11-05T03:06:59.786Z,9.32
2018-11-05T03:09:28.094Z,9.32
2018-11-05T03:11:56.389Z,9.29
2018-11-05T03:14:24.840Z,9.31
2018-11-05T03:16:53.266Z,9.40
2018-11-05T03:19:21.580Z,9.41
2018-11-05T03:21:50.011Z,9.34
2018-11-05T03:24:18.342Z,9.30
2018-11-05T03:26:46.675Z,9.26
2018-11-05T03:29:15.023Z,9.31
2018-11-05T03:31:43.351Z,9.30
2018-11-05T03:34:11.627Z,9.30
2018-11-05T03:36:39.953Z,9.29
2018-11-05T03:39:10.400Z,9.29
2018-11-05T03:41:40.016Z,9.28
2018-11-05T03:44:08.802Z,9.38
2018-11-05T03:46:37.496Z,9.35
2018-11-05T03:49:06.464Z,9.30
2018-11-05T03:51:34.987Z,9.29
2018-11-05T03:54:03.431Z,9.27
2018-11-05T03:56:31.861Z,9.30
2018-11-05T03:59:00.275Z,9.28
2018-11-05T04:01:28.618Z,9.25
2018-11-05T04:03:56.945Z,9.25
2018-11-05T04:06:25.275Z,9.24
2018-11-05T04:08:53.554Z,9.25
2018-11-05T04:11:21.914Z,9.35
2018-11-05T04:13:50.249Z,9.31
2018-11-05T04:16:18.641Z,9.25
2018-11-05T04:18:47.060Z,9.22
2018-11-05T04:21:15.437Z,9.24
2018-11-05T04:23:43.762Z,9.26
2018-11-05T04:26:12.095Z,9.22
2018-11-05T04:28:40.531Z,9.27
2018-11-05T04:31:08.848Z,9.22
2018-11-05T04:33:37.158Z,9.22
2018-11-05T04:36:05.850Z,9.25
2018-11-05T04:39:15.913Z,9.28
2018-11-05T04:41:45.672Z,9.25
2018-11-05T04:44:16.870Z,9.28
2018-11-05T04:46:45.196Z,9.29
2018-11-05T04:49:13.522Z,9.24
2018-11-05T04:51:41.881Z,9.25
2018-11-05T04:54:10.218Z,9.26
2018-11-05T04:56:38.554Z,9.30
2018-11-05T04:59:07.491Z,9.30
2018-11-05T05:01:35.854Z,9.33
2018-11-05T05:04:04.205Z,9.32
2018-11-05T05:06:32.491Z,9.29
2018-11-05T05:09:00.804Z,9.25
2018-11-05T05:11:29.217Z,9.26
2018-11-05T05:13:57.548Z,9.24
2018-11-05T05:16:25.947Z,9.24
2018-11-05T05:18:54.178Z,9.24
2018-11-05T05:21:22.515Z,9.26
2018-11-05T05:23:50.913Z,9.26
2018-11-05T05:26:19.343Z,9.26
2018-11-05T05:28:47.697Z,9.27
2018-11-05T05:31:16.026Z,9.23
2018-11-05T05:33:44.372Z,9.23
2018-11-05T05:36:12.973Z,9.24
2018-11-05T05:38:41.279Z,9.33
2018-11-05T05:41:09.770Z,9.30
2018-11-05T05:43:38.174Z,9.28
2018-11-05T05:46:06.557Z,9.27
2018-11-05T05:48:35.043Z,9.26
2018-11-05T05:51:03.358Z,9.28
2018-11-05T05:53:31.771Z,9.26
2018-11-05T05:56:00.111Z,9.33
2018-11-05T05:58:28.482Z,9.34
2018-11-05T06:00:56.838Z,9.30
2018-11-05T06:03:25.176Z,9.32
2018-11-05T06:05:56.264Z,9.34
2018-11-05T06:08:25.506Z,9.38
2018-11-05T06:10:54.521Z,9.40
2018-11-05T06:13:23.003Z,9.39
2018-11-05T06:15:51.382Z,9.35
2018-11-05T06:18:19.674Z,9.32
2018-11-05T06:20:47.942Z,9.41
2018-11-05T06:23:16.444Z,9.37
2018-11-05T06:25:44.838Z,9.40
2018-11-05T06:28:13.217Z,9.45
2018-11-05T06:30:41.803Z,9.43
2018-11-05T06:33:10.353Z,9.46
2018-11-05T06:35:38.637Z,9.40
2018-11-05T06:38:06.963Z,9.47
2018-11-05T06:40:35.409Z,9.49
2018-11-05T06:43:03.782Z,9.52
2018-11-05T06:45:32.187Z,9.55
2018-11-05T06:48:00.416Z,9.56
2018-11-05T06:50:28.781Z,9.50
2018-11-05T06:52:57.156Z,9.53
2018-11-05T07:29:57.532Z,9.93
2018-11-05T07:32:25.838Z,9.90
2018-11-05T07:34:56.226Z,10.00
2018-11-05T07:37:25.925Z,9.92
2018-11-05T07:39:54.385Z,9.91
2018-11-05T07:42:22.866Z,9.94
2018-11-05T07:44:51.227Z,10.03
2018-11-05T07:47:19.588Z,9.92
2018-11-05T07:49:52.209Z,9.94
2018-11-05T07:52:20.618Z,10.02
2018-11-05T07:54:49.201Z,9.98
2018-11-05T07:57:17.528Z,10.12
2018-11-05T07:59:46.175Z,10.06
2018-11-05T08:02:15.012Z,10.11
2018-11-05T08:04:45.712Z,10.26
2018-11-05T08:07:14.667Z,10.18
2018-11-05T08:09:43.129Z,10.22
2018-11-05T08:12:11.608Z,10.36
2018-11-05T08:15:01.325Z,10.35
2018-11-05T08:17:39.797Z,10.38
2018-11-05T08:20:14.293Z,10.38
2018-11-05T08:22:45.159Z,10.37
2018-11-05T08:25:14.302Z,10.38
2018-11-05T08:30:33.613Z,10.42
2018-11-05T08:33:19.335Z,10.45
2018-11-05T08:35:54.207Z,10.52
2018-11-05T08:38:24.821Z,10.57
2018-11-05T08:40:59.156Z,10.57
2018-11-05T08:43:27.475Z,10.61
2018-11-05T08:46:01.358Z,10.69
2018-11-05T08:48:29.892Z,10.61
2018-11-05T08:51:09.452Z,10.66
2018-11-05T08:53:46.497Z,10.69
2018-11-05T08:58:58.871Z,10.88
2018-11-05T09:01:45.289Z,10.82
2018-11-05T09:04:19.583Z,10.84
2018-11-05T09:06:57.299Z,10.92
2018-11-05T09:09:32.273Z,10.93
2018-11-05T09:12:16.368Z,11.00
2018-11-05T09:17:49.895Z,11.01
2018-11-05T09:21:22.016Z,10.94
2018-11-05T09:23:52.594Z,10.91
2018-11-05T09:26:28.668Z,10.98
2018-11-05T09:28:59.983Z,10.94
2018-11-05T09:31:34.263Z,10.88
2018-11-05T09:34:02.717Z,10.94
2018-11-05T09:36:49.157Z,10.96
2018-11-05T09:39:17.533Z,10.99
2018-11-05T09:41:45.860Z,11.06
2018-11-05T09:44:29.765Z,11.03
2018-11-05T09:47:01.131Z,11.12
2018-11-05T09:49:42.029Z,11.14
2018-11-05T09:52:30.370Z,11.21
2018-11-05T09:55:21.547Z,11.25
2018-11-05T10:01:18.930Z,11.31
2018-11-05T10:04:01.591Z,11.31
2018-11-05T10:06:29.991Z,11.25
2018-11-05T10:09:04.260Z,11.33
2018-11-05T10:20:09.123Z,11.31
2018-11-05T10:22:42.595Z,11.29
2018-11-05T10:28:22.895Z,10.96
2018-11-05T10:34:51.610Z,11.01
2018-11-05T10:49:56.160Z,11.08
2018-11-05T10:52:35.411Z,11.17
2018-11-05T11:00:55.767Z,10.98
2018-11-05T11:03:28.686Z,10.97
2018-11-05T11:08:49.751Z,10.95
2018-11-05T11:11:36.506Z,10.77
2018-11-05T11:16:40.387Z,10.97
2018-11-05T11:19:15.653Z,11.13
2018-11-05T11:21:56.357Z,11.06
2018-11-05T11:24:35.352Z,11.14
2018-11-05T11:27:03.828Z,11.05
2018-11-05T11:29:32.447Z,11.38
2018-11-05T11:32:00.760Z,11.41
2018-11-05T11:34:29.081Z,11.55
2018-11-05T11:36:57.448Z,11.60
2018-11-05T11:39:25.965Z,11.77
2018-11-05T11:44:48.799Z,11.76
2018-11-05T11:50:02.593Z,11.94
2018-11-05T11:52:30.977Z,11.86
2018-11-05T11:54:59.410Z,12.03
2018-11-05T11:57:27.854Z,11.94
2018-11-05T11:59:56.183Z,11.99
2018-11-05T12:02:24.526Z,12.00
2018-11-05T12:04:52.934Z,11.99
2018-11-05T12:07:21.251Z,11.97
2018-11-05T12:09:49.641Z,12.08
2018-11-05T12:12:19.069Z,12.05
2018-11-05T12:14:47.539Z,12.06
2018-11-05T12:17:15.721Z,12.12
2018-11-05T12:19:44.035Z,12.13
2018-11-05T12:22:12.404Z,12.19
2018-11-05T12:24:40.766Z,12.27
2018-11-05T12:27:09.076Z,12.17
2018-11-05T12:29:37.387Z,12.19
2018-11-05T12:32:06.061Z,12.18
2018-11-05T12:34:34.380Z,12.23
2018-11-05T12:37:02.679Z,12.16
2018-11-05T12:39:31.215Z,12.12
2018-11-05T12:41:59.491Z,12.00
2018-11-05T12:44:27.811Z,12.04
2018-11-05T12:46:56.120Z,12.12
2018-11-05T12:49:24.782Z,12.09
2018-11-05T12:51:53.188Z,12.13
2018-11-05T12:54:21.508Z,12.15
2018-11-05T12:56:49.807Z,12.15
2018-11-05T12:59:18.118Z,12.16
2018-11-05T13:01:46.394Z,12.13
2018-11-05T13:04:14.969Z,12.05
2018-11-05T13:06:43.219Z,11.95
2018-11-05T13:09:11.518Z,12.00
2018-11-05T13:11:39.849Z,11.95
2018-11-05T13:14:08.163Z,11.87
2018-11-05T13:16:36.519Z,11.74
2018-11-05T13:19:04.848Z,11.75
2018-11-05T13:21:33.178Z,11.69
2018-11-05T13:24:01.534Z,11.73
2018-11-05T13:26:29.866Z,11.62
2018-11-05T13:28:58.410Z,11.60
2018-11-05T13:31:26.912Z,11.59
2018-11-05T13:33:55.270Z,11.69
2018-11-05T13:36:23.608Z,11.68
2018-11-05T13:38:52.376Z,11.70
2018-11-05T13:41:20.707Z,11.74
2018-11-05T13:43:49.085Z,11.72
2018-11-05T13:46:17.740Z,11.64
2018-11-05T13:48:46.363Z,11.77
2018-11-05T13:51:14.167Z,11.75
2018-11-05T13:53:42.706Z,11.59
2018-11-05T13:56:11.012Z,11.57
2018-11-05T13:58:39.469Z,11.54
2018-11-05T14:01:07.785Z,11.48
2018-11-05T14:03:36.369Z,11.55
2018-11-05T14:06:05.174Z,11.45
2018-11-05T14:08:33.561Z,11.45
2018-11-05T14:11:01.994Z,11.41
2018-11-05T14:13:30.338Z,11.41
2018-11-05T14:15:58.814Z,11.38
2018-11-05T14:18:27.264Z,11.38
2018-11-05T14:20:55.656Z,11.38
2018-11-05T14:23:23.979Z,11.30
2018-11-05T14:25:52.314Z,11.39
2018-11-05T14:28:20.890Z,11.33
2018-11-05T14:30:48.944Z,11.31
2018-11-05T14:33:17.250Z,11.33
2018-11-05T14:35:45.728Z,11.35
2018-11-05T14:38:14.036Z,11.37
2018-11-05T14:40:42.375Z,11.32
2018-11-05T14:43:10.767Z,11.40
2018-11-05T14:45:39.063Z,11.37
2018-11-05T14:48:07.452Z,11.32
2018-11-05T14:50:36.437Z,11.41
2018-11-05T14:53:04.812Z,11.39
2018-11-05T14:55:33.225Z,11.34
2018-11-05T14:58:01.605Z,11.26
2018-11-05T15:00:35.590Z,11.43
2018-11-05T15:03:03.976Z,11.18
2018-11-05T15:05:32.299Z,11.13
2018-11-05T15:08:00.581Z,11.17
2018-11-05T15:10:28.927Z,11.10
2018-11-05T15:12:57.330Z,11.08
2018-11-05T15:15:25.696Z,10.99
2018-11-05T15:17:53.980Z,10.95
2018-11-05T15:20:23.306Z,10.92
2018-11-05T15:22:51.611Z,10.94
2018-11-05T15:25:20.575Z,10.73
2018-11-05T15:27:48.910Z,10.69
2018-11-05T15:30:18.667Z,10.62
2018-11-05T15:32:47.095Z,10.56
2018-11-05T15:35:15.661Z,10.54
2018-11-05T15:37:44.372Z,10.48
2018-11-05T15:40:14.596Z,10.49
2018-11-05T15:42:42.940Z,10.43
2018-11-05T15:45:12.595Z,10.15
2018-11-05T15:47:41.378Z,10.03
2018-11-05T15:50:11.984Z,10.02
2018-11-05T15:52:40.590Z,9.92
2018-11-05T15:55:08.790Z,9.83
2018-11-05T15:57:38.042Z,9.78
2018-11-05T16:00:13.416Z,9.77
2018-11-05T16:02:41.827Z,9.75
2018-11-05T16:05:10.223Z,9.52
2018-11-05T16:07:38.558Z,9.28
2018-11-05T16:10:07.996Z,9.35
2018-11-05T16:12:36.888Z,9.18
2018-11-05T16:15:06.090Z,9.05
2018-11-05T16:17:34.468Z,9.15
2018-11-05T16:20:02.837Z,9.00
2018-11-05T16:22:31.142Z,8.82
2018-11-05T16:24:59.824Z,8.73
2018-11-05T16:27:28.132Z,8.53
2018-11-05T16:29:56.576Z,8.50
2018-11-05T16:32:25.516Z,8.71
2018-11-05T16:34:54.067Z,8.50
2018-11-05T16:37:22.345Z,8.52
2018-11-05T16:39:50.792Z,8.63
2018-11-05T16:42:19.031Z,8.69
2018-11-05T16:44:47.363Z,8.68
2018-11-05T16:47:15.742Z,8.67
2018-11-05T16:49:44.151Z,8.50
2018-11-05T16:52:12.692Z,8.43
2018-11-05T16:54:41.028Z,8.51
2018-11-05T16:57:09.750Z,8.12
2018-11-05T16:59:38.108Z,8.02
2018-11-05T17:02:13.508Z,8.15
2018-11-05T17:04:42.196Z,7.87
2018-11-05T17:07:16.487Z,7.91
2018-11-05T17:09:45.126Z,8.06
2018-11-05T17:12:13.871Z,8.02
2018-11-05T17:14:42.398Z,7.97
2018-11-05T17:17:12.221Z,8.05
2018-11-05T17:19:40.654Z,8.06
2018-11-05T17:22:10.087Z,7.99
2018-11-05T17:24:38.620Z,8.03
2018-11-05T17:27:07.582Z,7.90
2018-11-05T17:29:36.004Z,7.82
2018-11-05T17:32:04.382Z,7.68
2018-11-05T17:34:32.713Z,7.39
2018-11-05T17:37:01.057Z,7.34
2018-11-05T17:39:29.496Z,7.63
2018-11-05T17:41:57.823Z,7.61
2018-11-05T17:44:26.185Z,7.41
2018-11-05T17:46:54.935Z,7.24
2018-11-05T17:49:23.425Z,7.29
2018-11-05T17:51:51.862Z,7.32
2018-11-05T17:54:20.503Z,7.37
2018-11-05T17:56:49.123Z,7.34
2018-11-05T17:59:17.536Z,7.33
2018-11-05T18:01:45.874Z,7.10
2018-11-05T18:04:15.309Z,7.03
2018-11-05T18:06:43.860Z,6.99
2018-11-05T18:09:12.696Z,6.98
2018-11-05T18:11:41.427Z,7.06
2018-11-05T18:14:10.372Z,7.12
2018-11-05T18:19:57.592Z,6.88
2018-11-05T18:22:26.331Z,6.90
2018-11-05T18:24:55.004Z,7.01
2018-11-05T18:27:24.401Z,7.17
2018-11-05T18:29:53.213Z,6.79
2018-11-05T18:32:22.605Z,6.59
2018-11-05T18:34:52.307Z,6.44
2018-11-05T18:37:21.121Z,6.34
2018-11-05T18:39:50.517Z,6.56
2018-11-05T18:42:18.884Z,6.50
2018-11-05T18:44:47.610Z,6.62
2018-11-05T18:47:16.616Z,6.64
2018-11-05T18:49:46.880Z,6.58
2018-11-05T18:52:15.261Z,6.33
2018-11-05T18:54:43.928Z,6.08
2018-11-05T18:57:14.104Z,6.35
2018-11-05T18:59:42.894Z,6.35
2018-11-05T19:02:15.802Z,6.39
2018-11-05T19:04:44.115Z,6.35
2018-11-05T19:07:13.700Z,6.12
2018-11-05T19:09:42.191Z,5.85
2018-11-05T19:12:10.671Z,5.81
2018-11-05T19:14:39.128Z,6.11
2018-11-05T19:17:08.625Z,6.08
2018-11-05T19:19:37.983Z,6.01
2018-11-05T19:22:06.821Z,5.98
2018-11-05T19:24:36.051Z,5.77
2018-11-05T19:27:04.647Z,5.72
2018-11-05T19:29:33.174Z,5.70
2018-11-05T19:32:02.041Z,5.91
2018-11-05T19:34:30.512Z,6.01
2018-11-05T19:36:59.510Z,5.88
2018-11-05T19:39:27.898Z,5.74
2018-11-05T19:41:56.359Z,5.54
2018-11-05T19:44:24.661Z,5.40
2018-11-05T19:46:53.163Z,5.71
2018-11-05T19:49:21.519Z,5.64
2018-11-05T19:51:49.888Z,5.57
2018-11-05T19:54:18.220Z,5.44
2018-11-05T19:56:46.578Z,5.57
2018-11-05T19:59:14.950Z,5.72
2018-11-05T20:01:43.614Z,5.77
2018-11-05T20:04:12.298Z,5.72
2018-11-05T20:06:40.667Z,5.71
2018-11-05T20:09:09.207Z,5.42
2018-11-05T20:11:37.919Z,5.11
2018-11-05T20:14:06.445Z,5.23
2018-11-05T20:16:35.035Z,5.48
2018-11-05T20:19:03.654Z,5.51
2018-11-05T20:21:32.007Z,5.46
2018-11-05T20:24:00.710Z,5.22
2018-11-05T20:26:29.480Z,4.91
2018-11-05T20:28:58.029Z,4.89
2018-11-05T20:31:26.620Z,5.00
2018-11-05T20:33:55.027Z,5.16
2018-11-05T20:36:23.285Z,5.27
2018-11-05T20:38:51.791Z,5.36
2018-11-05T20:41:20.131Z,5.26
2018-11-05T20:43:48.838Z,5.18
2018-11-05T20:46:17.213Z,4.84
2018-11-05T20:48:45.562Z,4.65
2018-11-05T20:51:14.133Z,4.66
2018-11-05T20:53:42.877Z,4.81
2018-11-05T20:56:11.328Z,4.86
2018-11-05T20:58:39.726Z,4.86
2018-11-05T21:01:08.473Z,4.94
2018-11-05T21:03:36.728Z,4.97
2018-11-05T21:06:06.497Z,5.10
2018-11-05T21:08:34.896Z,4.97
2018-11-05T21:11:03.413Z,5.10
2018-11-05T21:13:31.996Z,5.08
2018-11-05T21:16:00.595Z,5.26
2018-11-05T21:18:29.098Z,5.27
2018-11-05T21:20:57.494Z,4.88
2018-11-05T21:23:25.836Z,4.81
2018-11-05T21:25:54.205Z,5.02
2018-11-05T21:28:22.586Z,5.18
2018-11-05T21:30:51.012Z,4.98
2018-11-05T21:33:19.456Z,4.81
2018-11-05T21:35:47.762Z,4.90
2018-11-05T21:38:16.082Z,5.03
2018-11-05T21:40:44.470Z,4.98
2018-11-05T21:43:12.849Z,4.96
2018-11-05T21:45:43.060Z,4.83
2018-11-05T21:48:11.638Z,4.82
2018-11-05T21:50:39.988Z,4.43
2018-11-05T21:53:08.622Z,4.52
2018-11-05T21:55:36.951Z,4.76
2018-11-05T21:58:05.511Z,5.00
2018-11-05T22:00:33.822Z,5.02
2018-11-05T22:03:05.102Z,4.97
2018-11-05T22:05:33.410Z,4.92
2018-11-05T22:08:01.763Z,4.86
2018-11-05T22:10:30.065Z,4.75
2018-11-05T22:12:58.550Z,4.61
2018-11-05T22:15:31.090Z,4.47
2018-11-05T22:17:59.962Z,4.42
2018-11-05T22:20:28.330Z,4.57
2018-11-05T22:22:56.639Z,4.64
2018-11-05T22:25:24.934Z,4.50
2018-11-05T22:27:53.355Z,4.69
2018-11-05T22:30:23.522Z,4.77
2018-11-05T22:32:51.849Z,4.81
2018-11-05T22:35:20.207Z,4.64
2018-11-05T22:37:48.502Z,4.50
2018-11-05T22:40:16.845Z,4.41
2018-11-05T22:42:45.151Z,4.51
2018-11-05T22:45:14.647Z,4.39
2018-11-05T22:47:43.610Z,4.70
2018-11-05T22:50:11.965Z,4.69
2018-11-05T22:52:40.875Z,4.38
2018-11-05T22:55:09.726Z,4.44
2018-11-05T22:57:38.140Z,4.31
2018-11-05T23:00:16.749Z,4.50
2018-11-05T23:02:50.566Z,4.69
2018-11-05T23:05:19.080Z,4.65
2018-11-05T23:07:47.363Z,4.76
2018-11-05T23:10:15.739Z,4.59
2018-11-05T23:12:44.015Z,4.63
2018-11-05T23:15:12.461Z,4.53
2018-11-05T23:17:40.743Z,4.46
2018-11-05T23:20:09.763Z,4.09
2018-11-05T23:22:40.609Z,4.06
2018-11-05T23:25:10.977Z,4.21
2018-11-05T23:27:39.340Z,4.31
2018-11-05T23:30:09.946Z,4.22
2018-11-05T23:32:39.439Z,4.24
2018-11-05T23:35:08.752Z,4.06
2018-11-05T23:37:37.997Z,3.95
2018-11-05T23:40:07.014Z,3.84
2018-11-05T23:42:35.489Z,3.97
2018-11-05T23:45:04.002Z,3.80
2018-11-05T23:47:32.341Z,3.69
2018-11-05T23:50:00.650Z,3.93
2018-11-05T23:52:29.599Z,4.17
2018-11-05T23:54:57.899Z,4.23
2018-11-05T23:57:26.171Z,4.27
2018-11-05T23:59:54.474Z,4.23
